Time;durP1;ratioP1;P1;durP2;ratioP2;P2;SDS_P1;SDS_P2;PMS_P1;PMS_P2;Temp;Humidity;BMP_temperature;BMP_pressure;BME280_temperature;BME280_humidity;BME280_pressure;Samples;Min_cycle;Max_cycle;Signal;HPM_P1;HPM_P2
2023/07/24 00:01:01;;;;;;;4.05;2.13;;;22.10;57.40;;;;;;4983942;28;20054;-55
2023/07/24 00:03:28;;;;;;;2.58;1.90;;;22.10;57.40;;;;;;4986683;28;20062;-57
2023/07/24 00:06:00;;;;;;;1.83;1.73;;;22.00;57.40;;;;;;4985119;28;20077;-55
2023/07/24 00:08:27;;;;;;;7.47;1.95;;;22.10;57.50;;;;;;4985970;28;20058;-58
2023/07/24 00:10:54;;;;;;;3.20;2.00;;;22.10;57.50;;;;;;4985601;28;20054;-58
2023/07/24 00:13:21;;;;;;;2.83;2.03;;;22.00;57.50;;;;;;4985131;28;20506;-58
2023/07/24 00:15:49;;;;;;;2.30;1.92;;;22.00;57.50;;;;;;4985062;28;20050;-53
2023/07/24 00:18:16;;;;;;;3.22;1.88;;;22.00;57.50;;;;;;4984677;28;20054;-55
2023/07/24 00:20:43;;;;;;;2.60;2.08;;;22.00;57.60;;;;;;4985084;28;20054;-54
2023/07/24 00:23:12;;;;;;;3.97;2.17;;;22.00;57.50;;;;;;4985963;28;20054;-55
2023/07/24 00:25:39;;;;;;;2.60;1.90;;;22.00;57.60;;;;;;4986308;28;20053;-58
2023/07/24 00:28:06;;;;;;;2.47;1.88;;;22.00;57.60;;;;;;4984192;28;20046;-57
2023/07/24 00:30:33;;;;;;;2.35;1.80;;;22.00;57.60;;;;;;4984311;28;20065;-57
2023/07/24 00:33:00;;;;;;;2.80;1.98;;;22.00;57.60;;;;;;4984914;28;20060;-58
2023/07/24 00:35:28;;;;;;;2.25;1.90;;;22.00;57.60;;;;;;4986033;28;20498;-58
2023/07/24 00:37:55;;;;;;;3.17;1.85;;;21.90;57.60;;;;;;4985661;28;20061;-58
2023/07/24 00:40:23;;;;;;;2.03;1.83;;;21.90;57.60;;;;;;4985127;28;20054;-59
2023/07/24 00:42:51;;;;;;;2.92;2.00;;;21.90;57.60;;;;;;4985100;28;20421;-55
2023/07/24 00:45:18;;;;;;;3.15;2.20;;;21.90;57.60;;;;;;4984057;28;20053;-57
2023/07/24 00:47:45;;;;;;;3.03;2.00;;;21.90;57.60;;;;;;4984704;28;20046;-47
2023/07/24 00:50:13;;;;;;;3.88;2.28;;;21.90;57.70;;;;;;4984393;28;20062;-47
2023/07/24 00:52:42;;;;;;;2.35;2.00;;;21.90;57.70;;;;;;4985735;28;21811;-45
2023/07/24 00:55:11;;;;;;;2.50;1.98;;;21.80;57.70;;;;;;4985500;28;20479;-43
2023/07/24 00:57:40;;;;;;;5.20;2.15;;;21.80;57.80;;;;;;4984993;28;20061;-41
2023/07/24 01:02:45;;;;;;;4.72;2.35;;;21.80;57.90;;;;;;4963740;28;20061;-57
2023/07/24 01:05:14;;;;;;;3.75;2.08;;;21.80;57.80;;;;;;4965125;28;20070;-55
2023/07/24 01:07:42;;;;;;;3.20;2.25;;;21.80;57.90;;;;;;4964907;28;20414;-57
2023/07/24 01:10:10;;;;;;;2.60;2.22;;;21.80;57.90;;;;;;4966156;28;20058;-53
2023/07/24 01:12:45;;;;;;;3.42;2.20;;;21.80;57.90;;;;;;4964554;28;20061;-54
2023/07/24 01:15:17;;;;;;;3.08;2.28;;;21.80;58.00;;;;;;4964930;28;20054;-52
2023/07/24 01:17:48;;;;;;;4.05;2.20;;;21.80;58.00;;;;;;4962651;28;20078;-55
2023/07/24 01:20:19;;;;;;;2.40;2.00;;;21.80;58.00;;;;;;4964641;28;20058;-56
2023/07/24 01:23:05;;;;;;;3.95;2.50;;;21.80;58.00;;;;;;4966620;28;20057;-54
2023/07/24 01:25:36;;;;;;;3.33;2.22;;;21.80;58.00;;;;;;4964185;28;20055;-55
2023/07/24 01:28:09;;;;;;;5.72;2.40;;;21.80;57.90;;;;;;4965774;28;20051;-52
2023/07/24 01:30:36;;;;;;;2.67;2.13;;;21.80;58.00;;;;;;4961639;28;20516;-55
2023/07/24 01:33:03;;;;;;;3.78;2.17;;;21.80;57.90;;;;;;4963061;28;20054;-56
2023/07/24 01:35:32;;;;;;;3.13;2.50;;;21.80;58.00;;;;;;4965294;28;20050;-56
2023/07/24 01:38:01;;;;;;;3.20;2.05;;;21.80;58.10;;;;;;4965728;28;20057;-54
2023/07/24 01:40:28;;;;;;;2.78;2.20;;;21.80;58.10;;;;;;4965112;28;20065;-54
2023/07/24 01:42:55;;;;;;;3.55;2.03;;;21.80;58.00;;;;;;4966108;28;20454;-55
2023/07/24 01:45:24;;;;;;;2.70;2.10;;;21.80;58.00;;;;;;4964560;28;20054;-55
2023/07/24 01:47:51;;;;;;;2.60;2.22;;;21.80;58.10;;;;;;4964751;28;20139;-52
2023/07/24 01:50:19;;;;;;;3.72;2.42;;;21.80;58.10;;;;;;4964771;28;20058;-53
2023/07/24 01:52:46;;;;;;;5.57;2.53;;;21.80;58.10;;;;;;4964099;28;20434;-56
2023/07/24 01:55:13;;;;;;;3.60;2.50;;;21.70;58.00;;;;;;4963944;28;20058;-57
2023/07/24 01:57:40;;;;;;;3.35;2.35;;;21.70;58.10;;;;;;4964608;28;20063;-56
2023/07/24 02:00:09;;;;;;;2.92;2.40;;;21.70;58.10;;;;;;4949997;28;20053;-55
2023/07/24 02:02:37;;;;;;;3.70;2.53;;;21.80;58.10;;;;;;4942926;28;20062;-55
2023/07/24 02:05:05;;;;;;;3.95;2.45;;;21.70;58.10;;;;;;4945670;28;20507;-56
2023/07/24 02:07:32;;;;;;;2.83;2.30;;;21.70;58.10;;;;;;4946009;28;20093;-58
2023/07/24 02:10:00;;;;;;;3.08;2.30;;;21.70;58.10;;;;;;4944473;28;20529;-57
2023/07/24 02:12:27;;;;;;;2.63;2.20;;;21.80;58.10;;;;;;4945043;28;20059;-56
2023/07/24 02:14:55;;;;;;;2.30;2.10;;;21.70;58.10;;;;;;4946031;28;20065;-58
2023/07/24 02:17:24;;;;;;;2.53;1.92;;;21.70;58.10;;;;;;4944705;28;20066;-58
2023/07/24 02:19:52;;;;;;;2.97;2.42;;;21.70;58.10;;;;;;4945843;28;20050;-58
2023/07/24 02:22:19;;;;;;;2.72;2.35;;;21.70;58.20;;;;;;4944376;28;20096;-58
2023/07/24 02:24:47;;;;;;;3.13;2.00;;;21.70;58.20;;;;;;4945689;28;20445;-58
2023/07/24 02:27:25;;;;;;;3.38;2.33;;;21.80;58.20;;;;;;4945096;28;20066;-58
2023/07/24 02:29:54;;;;;;;3.60;2.47;;;21.70;58.20;;;;;;4944398;28;20054;-58
2023/07/24 02:32:22;;;;;;;4.35;2.10;;;21.70;58.20;;;;;;4943398;28;20059;-58
2023/07/24 02:34:50;;;;;;;3.75;2.50;;;21.80;58.30;;;;;;4945395;28;20073;-58
2023/07/24 02:37:18;;;;;;;4.30;2.30;;;21.70;58.30;;;;;;4943578;28;20436;-58
2023/07/24 02:39:46;;;;;;;2.53;2.05;;;21.70;58.30;;;;;;4944325;28;20055;-58
2023/07/24 02:42:13;;;;;;;2.55;2.22;;;21.70;58.40;;;;;;4943600;28;20059;-58
2023/07/24 02:44:40;;;;;;;2.63;2.20;;;21.70;58.40;;;;;;4945295;28;20428;-58
2023/07/24 02:47:07;;;;;;;3.78;2.22;;;21.70;58.40;;;;;;4943020;28;20067;-58
2023/07/24 02:49:35;;;;;;;3.10;2.40;;;21.70;58.40;;;;;;4945537;28;20414;-58
2023/07/24 02:52:02;;;;;;;3.15;2.28;;;21.70;58.40;;;;;;4943902;28;20069;-58
2023/07/24 02:54:31;;;;;;;3.60;2.55;;;21.70;58.50;;;;;;4944328;28;20046;-58
2023/07/24 02:56:58;;;;;;;3.42;2.50;;;21.70;58.50;;;;;;4944433;28;20380;-58
2023/07/24 02:59:25;;;;;;;4.55;2.00;;;21.60;58.40;;;;;;4945077;28;20055;-58
2023/07/24 03:01:52;;;;;;;3.67;2.30;;;21.70;58.50;;;;;;4942522;28;20062;-58
2023/07/24 03:04:19;;;;;;;3.45;2.47;;;21.60;58.50;;;;;;4944912;28;20487;-58
2023/07/24 03:06:47;;;;;;;3.58;2.65;;;21.60;58.50;;;;;;4944342;28;20059;-58
2023/07/24 03:09:14;;;;;;;4.18;2.63;;;21.60;58.50;;;;;;4944244;28;20080;-58
2023/07/24 03:11:42;;;;;;;3.50;2.53;;;21.60;58.50;;;;;;4943812;28;20054;-57
2023/07/24 03:14:10;;;;;;;5.10;3.08;;;21.60;58.60;;;;;;4948473;28;20427;-58
2023/07/24 03:16:37;;;;;;;3.20;2.58;;;21.60;58.50;;;;;;4946669;28;20380;-58
2023/07/24 03:19:05;;;;;;;3.75;2.80;;;21.60;58.50;;;;;;4948180;28;20051;-58
2023/07/24 03:21:32;;;;;;;5.07;3.03;;;21.60;58.50;;;;;;4948095;28;20062;-58
2023/07/24 03:23:59;;;;;;;4.63;3.10;;;21.60;58.50;;;;;;4948164;28;20375;-58
2023/07/24 03:26:27;;;;;;;3.72;2.60;;;21.60;58.50;;;;;;4949260;28;20055;-59
2023/07/24 03:28:55;;;;;;;3.30;2.70;;;21.50;58.40;;;;;;4948197;28;20051;-58
2023/07/24 03:31:22;;;;;;;5.07;3.05;;;21.50;58.40;;;;;;4946263;28;20475;-58
2023/07/24 03:33:50;;;;;;;3.38;2.97;;;21.50;58.50;;;;;;4948344;28;20495;-58
2023/07/24 03:36:17;;;;;;;5.13;3.08;;;21.50;58.50;;;;;;4948124;28;20061;-58
2023/07/24 03:38:44;;;;;;;7.30;3.50;;;21.50;58.40;;;;;;4947643;28;20526;-58
2023/07/24 03:41:11;;;;;;;5.45;4.10;;;21.50;58.50;;;;;;4947189;28;20074;-57
2023/07/24 03:43:39;;;;;;;4.22;3.15;;;21.50;58.50;;;;;;4946895;28;20058;-58
2023/07/24 03:46:08;;;;;;;5.50;3.78;;;21.40;58.50;;;;;;4946150;28;20502;-58
2023/07/24 03:48:36;;;;;;;7.82;4.75;;;21.40;58.50;;;;;;4947001;28;20059;-58
2023/07/24 03:51:03;;;;;;;6.35;4.75;;;21.40;58.50;;;;;;4946348;28;20140;-58
2023/07/24 03:53:31;;;;;;;5.72;4.30;;;21.40;58.50;;;;;;4948187;28;20129;-58
2023/07/24 03:55:58;;;;;;;6.20;4.13;;;21.40;58.50;;;;;;4947539;28;20055;-58
2023/07/24 03:58:25;;;;;;;3.72;3.35;;;21.40;58.60;;;;;;4947065;28;20511;-58
2023/07/24 04:00:52;;;;;;;5.63;3.72;;;21.40;58.60;;;;;;4945069;28;20082;-58
2023/07/24 04:03:21;;;;;;;4.30;3.10;;;21.30;58.60;;;;;;4947467;28;20055;-58
2023/07/24 04:05:48;;;;;;;5.63;3.63;;;21.30;58.70;;;;;;4946607;28;20047;-57
2023/07/24 04:08:16;;;;;;;5.32;4.10;;;21.30;58.70;;;;;;4948960;28;20094;-57
2023/07/24 04:10:43;;;;;;;5.40;3.33;;;21.30;58.70;;;;;;4946741;28;20495;-58
2023/07/24 04:13:10;;;;;;;5.70;3.40;;;21.30;58.70;;;;;;4947394;28;20074;-57
2023/07/24 04:15:38;;;;;;;4.85;3.00;;;21.30;58.70;;;;;;4945131;28;20491;-58
2023/07/24 04:18:05;;;;;;;4.32;3.65;;;21.30;58.80;;;;;;4948561;28;20054;-58
2023/07/24 04:20:33;;;;;;;10.90;6.93;;;21.30;58.80;;;;;;4948344;28;20070;-57
2023/07/24 04:23:01;;;;;;;7.53;5.28;;;21.30;58.80;;;;;;4947742;28;20059;-57
2023/07/24 04:25:28;;;;;;;5.95;4.45;;;21.30;58.80;;;;;;4947078;28;20082;-57
2023/07/24 04:27:55;;;;;;;6.43;4.03;;;21.30;58.80;;;;;;4946340;28;20043;-58
2023/07/24 04:30:23;;;;;;;5.88;3.63;;;21.30;58.80;;;;;;4943810;28;20051;-58
2023/07/24 04:32:50;;;;;;;5.47;3.65;;;21.30;58.80;;;;;;4946688;28;20054;-58
2023/07/24 04:35:17;;;;;;;5.20;3.75;;;21.30;58.90;;;;;;4945378;28;20066;-58
2023/07/24 04:37:46;;;;;;;4.97;3.45;;;21.30;58.80;;;;;;4946681;28;20058;-58
2023/07/24 04:40:13;;;;;;;5.90;3.85;;;21.30;58.70;;;;;;4944763;28;20059;-58
2023/07/24 04:42:41;;;;;;;4.90;3.47;;;21.30;58.70;;;;;;4946248;28;20490;-58
2023/07/24 04:45:09;;;;;;;5.13;3.50;;;21.30;58.60;;;;;;4945233;28;20073;-58
2023/07/24 04:47:38;;;;;;;5.38;3.80;;;21.30;58.50;;;;;;4945381;28;20062;-58
2023/07/24 04:50:07;;;;;;;7.82;5.60;;;21.40;58.50;;;;;;4945554;28;20051;-58
2023/07/24 04:52:34;;;;;;;8.90;5.95;;;21.40;58.50;;;;;;4944242;28;20062;-58
2023/07/24 04:55:02;;;;;;;7.32;4.65;;;21.40;58.50;;;;;;4945324;28;20055;-58
2023/07/24 04:57:31;;;;;;;5.22;4.05;;;21.40;58.50;;;;;;4945199;28;20062;-59
2023/07/24 04:59:58;;;;;;;5.93;3.65;;;21.40;58.50;;;;;;4946475;28;20062;-58
2023/07/24 05:02:25;;;;;;;5.97;3.47;;;21.40;58.50;;;;;;4943886;28;20063;-58
2023/07/24 05:04:52;;;;;;;8.90;4.00;;;21.50;58.50;;;;;;4945027;28;20384;-59
2023/07/24 05:07:19;;;;;;;6.00;4.00;;;21.40;58.30;;;;;;4944665;28;20055;-58
2023/07/24 05:09:47;;;;;;;7.85;3.92;;;21.50;58.30;;;;;;4945231;28;20055;-58
2023/07/24 05:12:15;;;;;;;6.18;4.00;;;21.40;58.00;;;;;;4945774;28;20066;-58
2023/07/24 05:14:47;;;;;;;5.60;3.78;;;21.50;58.00;;;;;;4947381;28;20054;-58
2023/07/24 05:17:15;;;;;;;6.07;3.83;;;21.40;57.90;;;;;;4944177;28;20429;-58
2023/07/24 05:19:43;;;;;;;6.15;4.30;;;21.50;57.70;;;;;;4944785;28;20059;-58
2023/07/24 05:22:10;;;;;;;6.05;4.20;;;21.50;57.60;;;;;;4945788;28;20502;-58
2023/07/24 05:24:37;;;;;;;5.40;3.67;;;21.50;57.60;;;;;;4947031;28;20415;-58
2023/07/24 05:27:05;;;;;;;8.48;3.70;;;21.50;57.50;;;;;;4945021;28;20051;-58
2023/07/24 05:29:34;;;;;;;4.72;3.65;;;21.50;57.40;;;;;;4945413;28;20051;-59
2023/07/24 05:32:01;;;;;;;6.78;3.80;;;21.60;57.50;;;;;;4943899;28;20415;-58
2023/07/24 05:34:28;;;;;;;6.70;3.47;;;21.60;57.50;;;;;;4945862;28;20066;-58
2023/07/24 05:36:56;;;;;;;6.18;4.15;;;21.60;57.50;;;;;;4945284;28;20051;-58
2023/07/24 05:39:23;;;;;;;5.72;3.80;;;21.60;57.40;;;;;;4945504;28;20063;-53
2023/07/24 05:41:50;;;;;;;6.32;3.28;;;21.60;57.30;;;;;;4946083;28;20063;-55
2023/07/24 05:44:17;;;;;;;6.25;3.65;;;21.60;57.20;;;;;;4945067;28;20055;-52
2023/07/24 05:46:46;;;;;;;5.47;3.45;;;21.60;57.10;;;;;;4943743;28;20055;-55
2023/07/24 05:49:13;;;;;;;5.47;3.92;;;21.60;57.00;;;;;;4946223;28;20496;-54
2023/07/24 05:51:40;;;;;;;6.20;4.00;;;21.60;57.00;;;;;;4944057;28;20597;-54
2023/07/24 05:54:08;;;;;;;8.80;3.85;;;21.60;56.90;;;;;;4944845;28;20055;-54
2023/07/24 05:56:35;;;;;;;7.32;3.70;;;21.70;57.00;;;;;;4943510;28;20495;-54
2023/07/24 05:59:02;;;;;;;6.72;3.95;;;21.60;57.00;;;;;;4944649;28;20062;-56
2023/07/24 06:01:29;;;;;;;5.80;4.22;;;21.70;57.10;;;;;;4941928;28;20506;-53
2023/07/24 06:03:58;;;;;;;5.22;3.67;;;21.70;57.20;;;;;;4943621;28;20047;-55
2023/07/24 06:06:25;;;;;;;7.28;4.10;;;21.80;57.30;;;;;;4946425;28;20415;-56
2023/07/24 06:08:52;;;;;;;5.40;3.83;;;21.80;57.20;;;;;;4944475;28;20055;-55
2023/07/24 06:11:20;;;;;;;17.70;4.75;;;21.90;57.10;;;;;;4944243;28;20051;-50
2023/07/24 06:13:47;;;;;;;5.90;3.75;;;21.90;56.90;;;;;;4944535;28;20065;-48
2023/07/24 06:16:14;;;;;;;5.75;4.10;;;22.00;56.90;;;;;;4942287;28;20058;-46
2023/07/24 06:18:42;;;;;;;6.55;4.40;;;22.10;57.00;;;;;;4943084;28;20066;-45
2023/07/24 06:21:11;;;;;;;8.18;4.38;;;22.10;56.80;;;;;;4944247;28;20487;-48
2023/07/24 06:23:38;;;;;;;7.25;4.10;;;22.20;57.00;;;;;;4942474;28;20128;-48
2023/07/24 06:26:05;;;;;;;8.02;4.88;;;22.20;56.20;;;;;;4943562;28;20051;-51
2023/07/24 06:28:33;;;;;;;12.27;6.15;;;22.30;56.10;;;;;;4942825;28;20074;-45
2023/07/24 06:31:00;;;;;;;7.60;4.95;;;22.30;56.00;;;;;;4945561;28;20066;-46
2023/07/24 06:33:27;;;;;;;7.05;4.38;;;22.40;56.00;;;;;;4945119;28;20582;-43
2023/07/24 06:35:54;;;;;;;6.65;4.35;;;22.40;55.90;;;;;;4944325;28;20101;-46
2023/07/24 06:38:23;;;;;;;7.13;4.45;;;22.50;55.90;;;;;;4943612;28;20050;-45
2023/07/24 06:40:50;;;;;;;7.15;4.63;;;22.50;55.80;;;;;;4943644;28;20074;-49
2023/07/24 06:43:18;;;;;;;7.78;4.25;;;22.50;55.70;;;;;;4944225;28;20058;-46
2023/07/24 06:45:45;;;;;;;5.63;3.97;;;22.60;55.60;;;;;;4943974;28;20051;-46
2023/07/24 06:48:12;;;;;;;6.95;4.80;;;22.70;55.70;;;;;;4943064;28;20606;-51
2023/07/24 06:50:39;;;;;;;5.65;4.50;;;22.70;55.70;;;;;;4943850;28;20054;-47
2023/07/24 06:53:07;;;;;;;5.85;4.25;;;22.80;55.60;;;;;;4944404;28;20050;-49
2023/07/24 06:55:35;;;;;;;7.03;4.45;;;22.90;55.50;;;;;;4943330;28;20055;-52
2023/07/24 06:58:02;;;;;;;5.53;3.92;;;23.00;55.30;;;;;;4944495;28;20051;-51
2023/07/24 07:00:30;;;;;;;6.15;4.10;;;23.00;55.10;;;;;;4943626;28;20059;-51
2023/07/24 07:02:57;;;;;;;7.82;5.35;;;23.10;54.80;;;;;;4943985;28;20055;-51
2023/07/24 07:05:24;;;;;;;7.22;4.10;;;23.10;54.80;;;;;;4943053;28;20495;-50
2023/07/24 07:07:51;;;;;;;5.78;3.92;;;23.20;54.60;;;;;;4943990;28;20691;-51
2023/07/24 07:10:19;;;;;;;6.03;4.38;;;23.20;54.60;;;;;;4942917;28;20070;-51
2023/07/24 07:12:47;;;;;;;6.30;4.18;;;23.30;54.50;;;;;;4943147;28;20662;-52
2023/07/24 07:15:15;;;;;;;5.43;4.00;;;23.30;54.10;;;;;;4943811;28;20070;-50
2023/07/24 07:17:42;;;;;;;6.28;4.50;;;23.30;54.00;;;;;;4944061;28;20414;-52
2023/07/24 07:20:10;;;;;;;6.35;4.40;;;23.40;53.80;;;;;;4942040;28;20792;-47
2023/07/24 07:22:38;;;;;;;6.43;4.55;;;23.40;53.70;;;;;;4943407;28;20424;-51
2023/07/24 07:25:05;;;;;;;7.97;5.05;;;23.50;53.80;;;;;;4943519;28;20063;-49
2023/07/24 07:27:33;;;;;;;6.55;4.28;;;23.50;53.40;;;;;;4944838;28;20047;-52
2023/07/24 07:30:02;;;;;;;6.45;4.55;;;23.50;53.50;;;;;;4944363;28;20051;-49
2023/07/24 07:32:29;;;;;;;5.28;3.83;;;23.50;53.40;;;;;;4941226;28;20055;-52
2023/07/24 07:34:56;;;;;;;7.22;4.30;;;23.50;53.30;;;;;;4943781;28;20456;-50
2023/07/24 07:37:23;;;;;;;6.47;4.45;;;23.50;53.20;;;;;;4945483;28;20058;-47
2023/07/24 07:39:51;;;;;;;6.13;4.25;;;23.60;53.30;;;;;;4945548;28;20051;-50
2023/07/24 07:42:18;;;;;;;6.53;4.20;;;23.60;53.40;;;;;;4943726;28;20063;-47
2023/07/24 07:44:45;;;;;;;7.82;4.68;;;23.60;53.30;;;;;;4944923;28;20074;-52
2023/07/24 07:47:14;;;;;;;5.68;3.88;;;23.60;53.30;;;;;;4944970;28;20514;-48
2023/07/24 07:49:41;;;;;;;5.63;3.83;;;23.60;53.10;;;;;;4945611;28;20541;-46
2023/07/24 07:52:09;;;;;;;6.50;3.97;;;23.70;53.20;;;;;;4940746;28;20050;-48
2023/07/24 07:54:36;;;;;;;6.07;4.40;;;23.70;53.30;;;;;;4944527;28;20054;-51
2023/07/24 07:57:05;;;;;;;5.10;3.85;;;23.70;53.10;;;;;;4946010;28;20050;-50
2023/07/24 07:59:33;;;;;;;5.72;4.05;;;23.70;52.90;;;;;;4946761;28;20051;-50
2023/07/24 08:02:00;;;;;;;5.00;3.70;;;23.70;52.80;;;;;;4947606;28;20070;-48
2023/07/24 08:04:29;;;;;;;5.05;3.75;;;23.70;52.80;;;;;;4947948;28;20105;-52
2023/07/24 08:06:56;;;;;;;6.10;4.00;;;23.80;52.60;;;;;;4947520;28;20058;-49
2023/07/24 08:09:24;;;;;;;5.13;3.72;;;23.70;52.40;;;;;;4946783;28;20059;-49
2023/07/24 08:11:51;;;;;;;7.13;3.78;;;23.70;52.30;;;;;;4945778;28;20058;-51
2023/07/24 08:14:18;;;;;;;5.43;3.63;;;23.80;52.40;;;;;;4948420;28;20423;-49
2023/07/24 08:16:48;;;;;;;5.13;4.15;;;23.80;52.50;;;;;;4946937;28;20495;-48
2023/07/24 08:19:15;;;;;;;5.50;3.92;;;23.80;52.60;;;;;;4946850;28;20491;-51
2023/07/24 08:21:44;;;;;;;5.32;3.67;;;23.80;52.50;;;;;;4945088;28;20047;-49
2023/07/24 08:24:11;;;;;;;5.35;4.03;;;23.80;52.50;;;;;;4947090;28;20574;-46
2023/07/24 08:26:39;;;;;;;6.15;3.95;;;23.80;52.40;;;;;;4945847;28;20055;-51
2023/07/24 08:29:06;;;;;;;5.03;3.65;;;23.90;52.40;;;;;;4947173;28;20502;-47
2023/07/24 08:31:34;;;;;;;4.05;3.17;;;23.90;52.20;;;;;;4946164;28;20051;-53
2023/07/24 08:34:01;;;;;;;8.18;4.07;;;23.90;52.00;;;;;;4947414;28;20051;-53
2023/07/24 08:36:29;;;;;;;5.47;3.35;;;24.00;52.00;;;;;;4947070;28;20530;-49
2023/07/24 08:38:57;;;;;;;4.88;3.47;;;24.00;51.70;;;;;;4947155;28;20054;-50
2023/07/24 08:41:24;;;;;;;6.63;3.65;;;24.00;51.70;;;;;;4946308;28;20494;-49
2023/07/24 08:43:53;;;;;;;7.15;3.63;;;24.00;51.70;;;;;;4946198;28;20058;-52
2023/07/24 08:46:21;;;;;;;7.00;3.53;;;24.10;51.60;;;;;;4946617;28;20051;-52
2023/07/24 08:48:48;;;;;;;4.22;3.28;;;24.10;51.50;;;;;;4949877;28;20073;-49
2023/07/24 08:51:18;;;;;;;4.70;3.80;;;24.10;51.40;;;;;;4946699;28;20483;-49
2023/07/24 08:53:46;;;;;;;4.82;3.25;;;24.20;51.40;;;;;;4945886;28;20062;-50
2023/07/24 08:56:14;;;;;;;4.72;3.38;;;24.10;51.30;;;;;;4947794;28;20059;-52
2023/07/24 08:58:42;;;;;;;5.68;3.30;;;24.20;51.30;;;;;;4947543;28;20068;-51
2023/07/24 09:01:09;;;;;;;6.25;3.35;;;24.20;51.20;;;;;;4944159;28;20541;-49
2023/07/24 09:03:37;;;;;;;5.68;3.50;;;24.20;51.20;;;;;;4946988;28;20055;-51
2023/07/24 09:06:07;;;;;;;4.85;3.33;;;24.20;51.30;;;;;;4946287;28;20058;-48
2023/07/24 09:08:36;;;;;;;4.70;3.28;;;24.30;51.30;;;;;;4948209;28;20055;-48
2023/07/24 09:11:04;;;;;;;3.88;3.22;;;24.30;51.10;;;;;;4946377;28;20051;-50
2023/07/24 09:13:35;;;;;;;3.78;3.10;;;24.30;51.00;;;;;;4945668;28;20074;-50
2023/07/24 09:16:03;;;;;;;4.10;2.63;;;24.40;50.90;;;;;;4944420;28;20055;-48
2023/07/24 09:18:40;;;;;;;5.07;3.40;;;24.40;50.90;;;;;;4945526;28;20051;-51
2023/07/24 09:21:07;;;;;;;4.43;3.22;;;24.40;50.80;;;;;;4946682;28;20051;-49
2023/07/24 09:23:35;;;;;;;7.50;3.25;;;24.50;51.00;;;;;;4943706;28;20066;-50
2023/07/24 09:26:06;;;;;;;3.58;2.83;;;24.50;50.90;;;;;;4944701;28;20055;-49
2023/07/24 09:28:35;;;;;;;5.80;3.17;;;24.50;50.60;;;;;;4945273;28;20584;-51
2023/07/24 09:31:03;;;;;;;4.47;3.10;;;24.60;50.60;;;;;;4943086;28;20058;-48
2023/07/24 09:33:36;;;;;;;5.22;3.40;;;24.60;50.40;;;;;;4945622;28;20060;-48
2023/07/24 09:36:04;;;;;;;3.70;2.60;;;24.60;50.30;;;;;;4944297;28;20495;-51
2023/07/24 09:38:31;;;;;;;6.30;2.65;;;24.70;50.30;;;;;;4945649;28;20054;-50
2023/07/24 09:40:59;;;;;;;3.72;2.70;;;24.70;50.10;;;;;;4945066;28;20051;-51
2023/07/24 09:43:28;;;;;;;5.32;2.85;;;24.80;50.00;;;;;;4944908;28;20055;-53
2023/07/24 09:45:57;;;;;;;4.47;2.80;;;24.80;49.90;;;;;;4942599;28;20062;-47
2023/07/24 09:48:26;;;;;;;5.13;3.10;;;24.80;50.20;;;;;;4946341;28;20062;-48
2023/07/24 09:50:55;;;;;;;3.88;2.95;;;24.80;50.20;;;;;;4945193;28;20050;-49
2023/07/24 09:53:29;;;;;;;3.80;2.67;;;24.90;50.00;;;;;;4944821;28;20069;-49
2023/07/24 09:55:59;;;;;;;2.90;2.60;;;24.90;49.90;;;;;;4944723;28;20054;-49
2023/07/24 09:58:27;;;;;;;4.10;2.72;;;25.00;49.80;;;;;;4943604;28;20051;-48
2023/07/24 10:00:56;;;;;;;3.33;2.88;;;25.00;49.80;;;;;;4942558;28;20055;-51
2023/07/24 10:03:23;;;;;;;3.75;2.58;;;25.10;49.50;;;;;;4944691;28;20081;-49
2023/07/24 10:05:51;;;;;;;2.85;2.30;;;25.10;49.90;;;;;;4945226;28;20065;-45
2023/07/24 10:08:20;;;;;;;4.50;2.70;;;25.20;49.30;;;;;;4945407;28;20075;-46
2023/07/24 10:10:50;;;;;;;4.15;2.85;;;25.20;49.20;;;;;;4944226;28;20070;-45
2023/07/24 10:13:19;;;;;;;4.18;2.53;;;25.20;49.20;;;;;;4944860;28;20415;-45
2023/07/24 10:15:48;;;;;;;2.85;2.53;;;25.30;49.40;;;;;;4943750;28;20055;-45
2023/07/24 10:18:18;;;;;;;3.40;2.40;;;25.30;48.90;;;;;;4945256;28;20070;-49
2023/07/24 10:20:46;;;;;;;4.07;2.90;;;25.30;48.50;;;;;;4943721;28;20430;-55
2023/07/24 10:23:19;;;;;;;3.30;2.40;;;25.40;48.40;;;;;;4945357;28;20356;-54
2023/07/24 10:25:52;;;;;;;3.95;2.83;;;25.40;48.00;;;;;;4944383;28;20382;-53
2023/07/24 10:28:19;;;;;;;3.80;2.70;;;25.40;47.90;;;;;;4944390;28;20577;-53
2023/07/24 10:30:56;;;;;;;3.15;2.42;;;25.40;47.80;;;;;;4943457;28;20055;-55
2023/07/24 10:33:25;;;;;;;3.47;2.90;;;25.40;47.60;;;;;;4944449;28;20434;-50
2023/07/24 10:35:54;;;;;;;4.53;3.00;;;25.40;47.60;;;;;;4942926;28;20055;-47
2023/07/24 10:38:34;;;;;;;3.78;2.67;;;25.50;47.90;;;;;;4944902;28;20537;-55
2023/07/24 10:41:03;;;;;;;4.22;2.45;;;25.50;47.50;;;;;;4945781;28;20058;-53
2023/07/24 10:43:40;;;;;;;3.92;2.78;;;25.50;47.70;;;;;;4943947;28;20463;-48
2023/07/24 10:46:07;;;;;;;4.25;2.55;;;25.60;47.60;;;;;;4942529;28;20062;-52
2023/07/24 10:48:36;;;;;;;5.80;3.30;;;25.60;47.60;;;;;;4945923;28;20074;-52
2023/07/24 10:51:08;;;;;;;3.83;2.80;;;25.60;47.80;;;;;;4943154;28;20062;-51
2023/07/24 10:53:37;;;;;;;4.20;3.03;;;25.60;47.30;;;;;;4944365;28;20066;-51
2023/07/24 10:56:05;;;;;;;4.38;2.70;;;25.60;47.40;;;;;;4943358;28;20047;-56
2023/07/24 10:58:33;;;;;;;3.72;2.92;;;25.70;47.30;;;;;;4943661;28;20549;-47
2023/07/24 11:01:01;;;;;;;4.13;2.78;;;25.70;47.10;;;;;;4942027;28;20043;-46
2023/07/24 11:03:28;;;;;;;3.88;2.78;;;25.80;47.20;;;;;;4943597;28;20059;-45
2023/07/24 11:05:58;;;;;;;4.63;3.13;;;25.80;47.10;;;;;;4943365;28;20059;-49
2023/07/24 11:08:26;;;;;;;4.70;3.00;;;25.80;46.90;;;;;;4944130;28;20063;-49
2023/07/24 11:10:54;;;;;;;4.70;3.28;;;25.80;46.90;;;;;;4944841;28;20047;-47
2023/07/24 11:13:23;;;;;;;4.00;2.90;;;25.90;47.00;;;;;;4944440;28;20071;-49
2023/07/24 11:15:51;;;;;;;5.82;3.10;;;25.90;47.20;;;;;;4943970;28;20063;-47
2023/07/24 11:18:20;;;;;;;4.47;2.97;;;26.00;47.30;;;;;;4945033;28;20055;-53
2023/07/24 11:20:49;;;;;;;6.10;3.45;;;26.00;46.80;;;;;;4943827;28;20090;-54
2023/07/24 11:23:18;;;;;;;5.03;3.00;;;26.00;46.70;;;;;;4943632;28;20066;-54
2023/07/24 11:25:47;;;;;;;4.50;2.88;;;26.00;46.50;;;;;;4942771;28;20055;-47
2023/07/24 11:28:15;;;;;;;3.97;2.83;;;26.10;46.30;;;;;;4942205;28;20392;-51
2023/07/24 11:30:43;;;;;;;4.03;3.10;;;26.10;46.90;;;;;;4943038;28;20070;-52
2023/07/24 11:33:12;;;;;;;4.00;2.90;;;26.10;46.80;;;;;;4943862;28;20063;-49
2023/07/24 11:35:40;;;;;;;4.53;3.13;;;26.20;46.10;;;;;;4947015;28;20456;-51
2023/07/24 11:38:09;;;;;;;4.20;3.08;;;26.10;45.70;;;;;;4948192;28;20069;-47
2023/07/24 11:40:39;;;;;;;5.60;2.78;;;26.20;45.50;;;;;;4948331;28;20407;-46
2023/07/24 11:43:15;;;;;;;4.20;2.97;;;26.20;45.40;;;;;;4947487;28;20423;-54
2023/07/24 11:45:43;;;;;;;6.22;3.20;;;26.20;45.40;;;;;;4946248;28;20053;-54
2023/07/24 11:48:11;;;;;;;4.68;3.25;;;26.30;45.00;;;;;;4947224;28;20518;-48
2023/07/24 11:50:44;;;;;;;4.95;3.30;;;26.30;45.00;;;;;;4947732;28;20047;-48
2023/07/24 11:53:21;;;;;;;5.82;3.50;;;26.30;44.60;;;;;;4947822;28;20059;-52
2023/07/24 11:55:50;;;;;;;6.20;3.00;;;26.40;44.70;;;;;;4947554;28;20071;-55
2023/07/24 11:58:18;;;;;;;6.38;3.17;;;26.40;44.40;;;;;;4948076;28;20055;-52
2023/07/24 12:00:47;;;;;;;3.25;2.75;;;26.40;44.30;;;;;;4946033;28;20499;-53
2023/07/24 12:03:14;;;;;;;4.13;2.83;;;26.40;44.00;;;;;;4947321;28;20059;-55
2023/07/24 12:05:43;;;;;;;4.45;3.28;;;26.50;44.10;;;;;;4947103;28;20411;-55
2023/07/24 12:08:10;;;;;;;4.38;3.47;;;26.50;44.00;;;;;;4947716;28;20063;-55
2023/07/24 12:10:39;;;;;;;3.63;2.80;;;26.50;44.10;;;;;;4945685;28;20069;-47
2023/07/24 12:13:08;;;;;;;5.10;3.58;;;26.50;44.40;;;;;;4947120;28;20068;-54
2023/07/24 12:15:36;;;;;;;6.63;3.60;;;26.60;44.30;;;;;;4946071;28;20609;-54
2023/07/24 12:18:04;;;;;;;4.13;3.08;;;26.70;44.30;;;;;;4948102;28;20411;-54
2023/07/24 12:20:31;;;;;;;3.80;2.88;;;26.70;44.20;;;;;;4946710;28;20054;-55
2023/07/24 12:22:59;;;;;;;6.82;3.45;;;26.80;44.40;;;;;;4947141;28;20062;-53
2023/07/24 12:25:26;;;;;;;4.72;3.13;;;26.80;44.10;;;;;;4946753;28;20059;-53
2023/07/24 12:27:53;;;;;;;4.03;2.80;;;26.90;44.10;;;;;;4946934;28;20062;-52
2023/07/24 12:30:22;;;;;;;4.03;2.75;;;26.90;44.10;;;;;;4946659;28;20055;-50
2023/07/24 12:32:49;;;;;;;5.97;2.35;;;26.90;44.20;;;;;;4946333;28;20054;-45
2023/07/24 12:35:17;;;;;;;3.30;2.45;;;27.00;44.00;;;;;;4947576;28;20070;-48
2023/07/24 12:37:45;;;;;;;3.20;2.22;;;27.00;44.20;;;;;;4946419;28;20058;-53
2023/07/24 12:40:13;;;;;;;2.97;2.50;;;27.10;44.10;;;;;;4945686;28;20058;-54
2023/07/24 12:42:40;;;;;;;3.22;2.53;;;27.10;44.00;;;;;;4945519;28;20531;-54
2023/07/24 12:45:08;;;;;;;3.72;2.45;;;27.20;44.10;;;;;;4946267;28;20062;-48
2023/07/24 12:47:36;;;;;;;2.65;1.90;;;27.20;44.00;;;;;;4945443;28;20506;-53
2023/07/24 12:50:04;;;;;;;4.55;2.38;;;27.20;43.80;;;;;;4946869;28;20043;-53
2023/07/24 12:52:31;;;;;;;2.67;2.03;;;27.30;44.10;;;;;;4946459;28;20051;-47